createdAt,value
2023-01-10T00:00:32.633Z,6.28
2023-01-10T00:01:32.571Z,6.28
2023-01-10T00:02:32.673Z,6.26
2023-01-10T00:03:32.543Z,6.33
2023-01-10T00:04:32.573Z,6.30
2023-01-10T00:05:32.560Z,6.30
2023-01-10T00:06:32.512Z,6.29
2023-01-10T00:07:32.491Z,6.29
2023-01-10T00:08:32.493Z,6.32
2023-01-10T00:09:32.461Z,6.32
2023-01-10T00:10:32.460Z,6.30
2023-01-10T00:11:32.464Z,6.33
2023-01-10T00:12:32.433Z,6.32
2023-01-10T00:13:32.421Z,6.36
2023-01-10T00:14:32.425Z,6.36
2023-01-10T00:15:32.430Z,6.36
2023-01-10T00:16:32.391Z,6.40
2023-01-10T00:17:32.377Z,6.41
2023-01-10T00:18:32.351Z,6.46
2023-01-10T00:19:32.333Z,6.46
2023-01-10T00:20:32.321Z,6.46
2023-01-10T00:21:32.322Z,6.48
2023-01-10T00:22:32.302Z,6.46
2023-01-10T00:23:32.286Z,6.47
2023-01-10T00:24:32.272Z,6.47
2023-01-10T00:25:32.277Z,6.48
2023-01-10T00:26:32.252Z,6.48
2023-01-10T00:27:32.232Z,6.48
2023-01-10T00:28:32.212Z,6.50
2023-01-10T00:29:32.203Z,6.50
2023-01-10T00:30:32.189Z,6.48
2023-01-10T00:31:32.216Z,6.51
2023-01-10T00:32:32.164Z,6.50
2023-01-10T00:33:32.233Z,6.48
2023-01-10T00:34:32.132Z,6.50
2023-01-10T00:35:32.132Z,6.51
2023-01-10T00:36:32.122Z,6.51
2023-01-10T00:37:32.102Z,6.50
2023-01-10T00:38:32.087Z,6.53
2023-01-10T00:39:32.073Z,6.51
2023-01-10T00:40:32.053Z,6.53
2023-01-10T00:41:32.062Z,6.56
2023-01-10T00:42:32.024Z,6.56
2023-01-10T00:43:32.022Z,6.56
2023-01-10T00:44:32.016Z,6.61
2023-01-10T00:45:32.000Z,6.59
2023-01-10T00:46:32.096Z,6.59
2023-01-10T00:47:31.963Z,6.63
2023-01-10T00:48:31.955Z,6.63
2023-01-10T00:49:31.946Z,6.63
2023-01-10T00:50:31.941Z,6.65
2023-01-10T00:51:38.965Z,6.59
2023-01-10T00:52:34.540Z,6.65
2023-01-10T00:53:31.894Z,6.66
2023-01-10T00:54:31.881Z,6.69
2023-01-10T00:55:31.880Z,6.69
2023-01-10T00:56:31.871Z,6.68
2023-01-10T00:57:31.840Z,6.65
2023-01-10T00:58:31.816Z,6.68
2023-01-10T00:59:31.808Z,6.68
2023-01-10T01:00:31.794Z,6.68
2023-01-10T01:01:31.954Z,6.68
2023-01-10T01:02:31.796Z,6.68
2023-01-10T01:03:31.757Z,6.69
2023-01-10T01:04:31.739Z,6.68
2023-01-10T01:05:31.741Z,6.71
2023-01-10T01:06:31.721Z,6.69
2023-01-10T01:07:31.729Z,6.72
2023-01-10T01:08:31.687Z,6.71
2023-01-10T01:09:31.684Z,6.73
2023-01-10T01:10:31.659Z,6.76
2023-01-10T01:11:31.667Z,6.73
2023-01-10T01:12:31.646Z,6.71
2023-01-10T01:13:31.617Z,6.76
2023-01-10T01:14:31.612Z,6.79
2023-01-10T01:15:31.621Z,6.80
2023-01-10T01:16:31.608Z,6.72
2023-01-10T01:17:31.578Z,6.76
2023-01-10T01:18:31.557Z,6.76
2023-01-10T01:19:31.548Z,6.76
2023-01-10T01:20:31.519Z,6.71
2023-01-10T01:21:31.533Z,6.76
2023-01-10T01:22:31.506Z,6.73
2023-01-10T01:23:31.493Z,6.73
2023-01-10T01:24:31.472Z,6.77
2023-01-10T01:25:31.481Z,6.73
2023-01-10T01:26:31.459Z,6.73
2023-01-10T01:27:31.475Z,6.73
2023-01-10T01:28:31.420Z,6.76
2023-01-10T01:29:42.415Z,6.79
2023-01-10T01:30:32.399Z,6.80
2023-01-10T01:31:31.441Z,6.79
2023-01-10T01:32:31.373Z,6.83
2023-01-10T01:33:31.359Z,6.83
2023-01-10T01:34:31.343Z,6.81
2023-01-10T01:35:31.329Z,6.77
2023-01-10T01:36:31.337Z,6.80
2023-01-10T01:37:31.317Z,6.81
2023-01-10T01:38:31.281Z,6.80
2023-01-10T01:39:31.279Z,6.81
2023-01-10T01:40:31.263Z,6.86
2023-01-10T01:41:31.261Z,6.84
2023-01-10T01:42:31.238Z,6.87
2023-01-10T01:43:31.236Z,6.84
2023-01-10T01:44:31.213Z,6.84
2023-01-10T01:45:31.210Z,6.87
2023-01-10T01:46:31.250Z,6.86
2023-01-10T01:47:31.175Z,6.84
2023-01-10T01:48:31.160Z,6.84
2023-01-10T01:49:31.151Z,6.83
2023-01-10T01:50:31.129Z,6.87
2023-01-10T01:51:31.126Z,6.86
2023-01-10T01:52:31.104Z,6.86
2023-01-10T01:53:31.098Z,6.83
2023-01-10T01:54:31.075Z,6.83
2023-01-10T01:55:31.080Z,6.83
2023-01-10T01:56:31.073Z,6.81
2023-01-10T01:57:31.049Z,6.79
2023-01-10T01:58:31.030Z,6.81
2023-01-10T01:59:31.016Z,6.77
2023-01-10T02:00:31.000Z,6.80
2023-01-10T02:01:31.137Z,6.80
2023-01-10T02:02:31.043Z,6.80
2023-01-10T02:03:31.001Z,6.77
2023-01-10T02:04:30.956Z,6.80
2023-01-10T02:05:30.974Z,6.81
2023-01-10T02:06:30.949Z,6.77
2023-01-10T02:07:30.927Z,6.77
2023-01-10T02:08:30.892Z,6.76
2023-01-10T02:09:30.903Z,6.73
2023-01-10T02:10:30.876Z,6.72
2023-01-10T02:11:30.877Z,6.69
2023-01-10T02:12:30.845Z,6.69
2023-01-10T02:13:30.847Z,6.69
2023-01-10T02:14:30.837Z,6.69
2023-01-10T02:15:30.806Z,6.66
2023-01-10T02:16:30.797Z,6.66
2023-01-10T02:17:30.782Z,6.61
2023-01-10T02:18:30.774Z,6.59
2023-01-10T02:19:30.763Z,6.59
2023-01-10T02:20:30.728Z,6.58
2023-01-10T02:21:30.740Z,6.58
2023-01-10T02:22:30.710Z,6.53
2023-01-10T02:23:30.698Z,6.47
2023-01-10T02:24:30.722Z,6.46
2023-01-10T02:25:30.686Z,6.43
2023-01-10T02:26:30.685Z,6.43
2023-01-10T02:27:30.653Z,6.38
2023-01-10T02:28:30.637Z,6.38
2023-01-10T02:29:30.626Z,6.35
2023-01-10T02:30:30.611Z,6.35
2023-01-10T02:31:30.661Z,6.32
2023-01-10T02:32:41.979Z,6.29
2023-01-10T02:33:31.575Z,6.22
2023-01-10T02:34:30.552Z,6.21
2023-01-10T02:35:30.562Z,6.16
2023-01-10T02:36:30.549Z,6.19
2023-01-10T02:37:30.531Z,6.14
2023-01-10T02:38:30.507Z,6.13
2023-01-10T02:39:30.482Z,6.10
2023-01-10T02:40:30.480Z,6.09
2023-01-10T02:41:30.493Z,6.10
2023-01-10T02:42:30.451Z,6.11
2023-01-10T02:43:30.435Z,6.10
2023-01-10T02:44:30.422Z,6.10
2023-01-10T02:45:30.411Z,6.11
2023-01-10T02:46:30.455Z,6.11
2023-01-10T02:47:30.409Z,6.13
2023-01-10T02:48:30.373Z,6.19
2023-01-10T02:49:30.357Z,6.18
2023-01-10T02:50:30.337Z,6.16
2023-01-10T02:51:30.342Z,6.18
2023-01-10T02:52:30.323Z,6.16
2023-01-10T02:53:30.316Z,6.14
2023-01-10T02:54:30.301Z,6.11
2023-01-10T02:55:30.292Z,6.18
2023-01-10T02:56:30.286Z,6.11
2023-01-10T02:57:30.254Z,6.11
2023-01-10T02:58:30.244Z,6.07
2023-01-10T02:59:30.230Z,6.04
2023-01-10T03:00:30.211Z,6.04
2023-01-10T03:01:30.290Z,6.03
2023-01-10T03:02:30.185Z,6.03
2023-01-10T03:03:30.176Z,6.00
2023-01-10T03:04:30.196Z,5.96
2023-01-10T03:05:30.177Z,5.96
2023-01-10T03:06:30.152Z,5.95
2023-01-10T03:07:30.123Z,5.92
2023-01-10T03:08:30.108Z,5.91
2023-01-10T03:09:30.109Z,5.86
2023-01-10T03:10:30.077Z,5.83
2023-01-10T03:11:30.063Z,5.81
2023-01-10T03:12:30.073Z,5.83
2023-01-10T03:13:30.039Z,5.82
2023-01-10T03:14:30.033Z,5.82
2023-01-10T03:15:30.025Z,5.81
2023-01-10T03:16:29.987Z,5.74
2023-01-10T03:17:30.020Z,5.74
2023-01-10T03:18:29.977Z,5.73
2023-01-10T03:19:29.963Z,5.71
2023-01-10T03:20:29.939Z,5.71
2023-01-10T03:21:29.940Z,5.73
2023-01-10T03:22:29.926Z,5.67
2023-01-10T03:23:29.905Z,5.68
2023-01-10T03:24:29.893Z,5.68
2023-01-10T03:25:29.882Z,5.66
2023-01-10T03:26:29.857Z,5.63
2023-01-10T03:27:29.885Z,5.63
2023-01-10T03:28:29.835Z,5.63
2023-01-10T03:29:29.844Z,5.63
2023-01-10T03:30:29.828Z,5.60
2023-01-10T03:31:29.838Z,5.63
2023-01-10T03:32:29.841Z,5.63
2023-01-10T03:33:29.773Z,5.66
2023-01-10T03:34:29.758Z,5.59
2023-01-10T03:35:29.749Z,5.59
2023-01-10T03:36:29.724Z,5.56
2023-01-10T03:37:29.745Z,5.57
2023-01-10T03:38:29.696Z,5.56
2023-01-10T03:39:29.704Z,5.55
2023-01-10T03:40:29.684Z,5.53
2023-01-10T03:41:29.672Z,5.55
2023-01-10T03:42:29.679Z,5.56
2023-01-10T03:43:29.657Z,5.55
2023-01-10T03:44:29.622Z,5.56
2023-01-10T03:45:29.617Z,5.56
2023-01-10T03:46:29.651Z,5.60
2023-01-10T03:47:29.606Z,5.60
2023-01-10T03:48:29.583Z,5.59
2023-01-10T03:49:29.576Z,5.60
2023-01-10T03:50:29.587Z,5.57
2023-01-10T03:51:29.539Z,5.59
2023-01-10T03:52:29.573Z,5.59
2023-01-10T03:53:29.516Z,5.57
2023-01-10T03:54:29.523Z,5.63
2023-01-10T03:55:29.487Z,5.63
2023-01-10T03:56:29.471Z,5.64
2023-01-10T03:57:29.510Z,5.64
2023-01-10T03:58:29.452Z,5.67
2023-01-10T03:59:29.427Z,5.66
2023-01-10T04:00:29.417Z,5.68
2023-01-10T04:01:29.528Z,5.68
2023-01-10T04:02:29.407Z,5.70
2023-01-10T04:03:29.379Z,5.71
2023-01-10T04:04:29.361Z,5.73
2023-01-10T04:05:29.360Z,5.74
2023-01-10T04:06:29.343Z,5.75
2023-01-10T04:07:29.344Z,5.77
2023-01-10T04:08:29.311Z,5.77
2023-01-10T04:09:29.296Z,5.82
2023-01-10T04:10:29.279Z,5.86
2023-01-10T04:11:29.278Z,5.81
2023-01-10T04:12:29.297Z,5.81
2023-01-10T04:13:29.246Z,5.81
2023-01-10T04:14:29.237Z,5.81
2023-01-10T04:15:29.231Z,5.81
2023-01-10T04:16:29.269Z,5.82
2023-01-10T04:17:29.219Z,5.78
2023-01-10T04:18:29.209Z,5.83
2023-01-10T04:19:29.169Z,5.81
2023-01-10T04:20:29.150Z,5.78
2023-01-10T04:21:29.151Z,5.78
2023-01-10T04:22:29.158Z,5.77
2023-01-10T04:23:29.129Z,5.75
2023-01-10T04:24:29.125Z,5.77
2023-01-10T04:25:29.085Z,5.73
2023-01-10T04:26:29.067Z,5.73
2023-01-10T04:27:29.081Z,5.73
2023-01-10T04:28:29.051Z,5.71
2023-01-10T04:29:29.040Z,5.70
2023-01-10T04:30:29.019Z,5.70
2023-01-10T04:31:29.109Z,5.70
2023-01-10T04:32:29.009Z,5.73
2023-01-10T04:33:28.986Z,5.71
2023-01-10T04:34:28.961Z,5.74
2023-01-10T04:35:28.951Z,5.74
2023-01-10T04:36:28.941Z,5.74
2023-01-10T04:37:28.937Z,5.77
2023-01-10T04:38:28.927Z,5.77
2023-01-10T04:39:28.898Z,5.77
2023-01-10T04:40:28.887Z,5.78
2023-01-10T04:41:28.869Z,5.78
2023-01-10T04:42:28.887Z,5.81
2023-01-10T04:43:28.864Z,5.82
2023-01-10T04:44:28.839Z,5.81
2023-01-10T04:45:28.862Z,5.83
2023-01-10T04:46:28.823Z,5.83
2023-01-10T04:47:28.803Z,5.88
2023-01-10T04:48:28.780Z,5.85
2023-01-10T04:49:28.773Z,5.85
2023-01-10T04:50:28.763Z,5.91
2023-01-10T04:51:28.756Z,5.89
2023-01-10T04:52:28.731Z,5.91
2023-01-10T04:53:28.736Z,5.92
2023-01-10T04:54:28.699Z,5.92
2023-01-10T04:55:28.696Z,5.91
2023-01-10T04:56:28.682Z,5.92
2023-01-10T04:57:28.664Z,5.93
2023-01-10T04:58:28.662Z,5.92
2023-01-10T04:59:28.630Z,5.95
2023-01-10T05:00:28.644Z,5.96
2023-01-10T05:01:28.616Z,5.96
2023-01-10T05:02:28.741Z,5.96
2023-01-10T05:03:28.589Z,5.96
2023-01-10T05:04:28.598Z,5.96
2023-01-10T05:05:28.558Z,5.98
2023-01-10T05:06:28.554Z,6.01
2023-01-10T05:07:28.536Z,5.98
2023-01-10T05:08:28.535Z,5.98
2023-01-10T05:09:28.514Z,6.00
2023-01-10T05:10:28.490Z,6.00
2023-01-10T05:11:28.472Z,6.00
2023-01-10T05:12:28.468Z,6.00
2023-01-10T05:13:28.460Z,6.00
2023-01-10T05:14:28.428Z,5.98
2023-01-10T05:15:28.416Z,6.00
2023-01-10T05:16:28.482Z,5.95
2023-01-10T05:17:28.428Z,5.96
2023-01-10T05:18:28.417Z,5.98
2023-01-10T05:19:28.423Z,5.95
2023-01-10T05:20:28.362Z,5.98
2023-01-10T05:21:28.361Z,5.95
2023-01-10T05:22:28.342Z,5.93
2023-01-10T05:23:28.333Z,5.93
2023-01-10T05:24:28.304Z,5.96
2023-01-10T05:25:28.279Z,5.95
2023-01-10T05:26:28.280Z,5.93
2023-01-10T05:27:28.269Z,5.93
2023-01-10T05:28:28.284Z,5.95
2023-01-10T05:29:28.244Z,5.92
2023-01-10T05:30:28.240Z,5.92
2023-01-10T05:31:28.250Z,5.86
2023-01-10T05:32:28.201Z,5.88
2023-01-10T05:33:28.206Z,5.86
2023-01-10T05:34:28.182Z,5.89
2023-01-10T05:35:28.153Z,5.89
2023-01-10T05:36:28.160Z,5.88
2023-01-10T05:37:28.131Z,5.83
2023-01-10T05:38:28.144Z,5.83
2023-01-10T05:39:28.103Z,5.81
2023-01-10T05:40:28.090Z,5.77
2023-01-10T05:41:28.088Z,5.81
2023-01-10T05:42:28.081Z,5.75
2023-01-10T05:43:28.080Z,5.74
2023-01-10T05:44:28.058Z,5.73
2023-01-10T05:45:28.023Z,5.73
2023-01-10T05:46:28.036Z,5.70
2023-01-10T05:47:28.006Z,5.70
2023-01-10T05:48:28.016Z,5.67
2023-01-10T05:49:27.991Z,5.66
2023-01-10T05:50:27.972Z,5.64
2023-01-10T05:51:27.941Z,5.66
2023-01-10T05:52:27.961Z,5.67
2023-01-10T05:53:27.947Z,5.64
2023-01-10T05:54:27.919Z,5.66
2023-01-10T05:55:27.897Z,5.59
2023-01-10T05:56:27.882Z,5.57
2023-01-10T05:57:27.882Z,5.57
2023-01-10T05:58:27.886Z,5.55
2023-01-10T05:59:28.579Z,5.55
2023-01-10T06:00:27.834Z,5.53
2023-01-10T06:01:27.850Z,5.50
2023-01-10T06:02:27.863Z,5.52
2023-01-10T06:03:27.802Z,5.53
2023-01-10T06:04:27.772Z,5.53
2023-01-10T06:05:27.761Z,5.55
2023-01-10T06:06:27.769Z,5.53
2023-01-10T06:07:27.734Z,5.52
2023-01-10T06:08:27.734Z,5.55
2023-01-10T06:09:27.738Z,5.52
2023-01-10T06:10:27.730Z,5.50
2023-01-10T06:11:27.683Z,5.55
2023-01-10T06:12:27.699Z,5.55
2023-01-10T06:13:27.673Z,5.56
2023-01-10T06:14:27.663Z,5.57
2023-01-10T06:15:27.629Z,5.59
2023-01-10T06:16:27.631Z,5.64
2023-01-10T06:17:27.613Z,5.64
2023-01-10T06:18:27.601Z,5.67
2023-01-10T06:19:27.605Z,5.68
2023-01-10T06:20:27.606Z,5.67
2023-01-10T06:21:27.568Z,5.70
2023-01-10T06:22:27.548Z,5.70
2023-01-10T06:23:27.528Z,5.71
2023-01-10T06:24:27.534Z,5.71
2023-01-10T06:25:27.496Z,5.73
2023-01-10T06:26:27.493Z,5.70
2023-01-10T06:27:27.464Z,5.68
2023-01-10T06:28:27.504Z,5.67
2023-01-10T06:29:27.492Z,5.70
2023-01-10T06:30:27.478Z,5.71
2023-01-10T06:31:27.484Z,5.73
2023-01-10T06:32:27.417Z,5.74
2023-01-10T06:33:27.396Z,5.78
2023-01-10T06:34:27.399Z,5.77
2023-01-10T06:35:27.363Z,5.74
2023-01-10T06:36:27.378Z,5.74
2023-01-10T06:37:27.353Z,5.77
2023-01-10T06:38:27.338Z,5.77
2023-01-10T06:39:27.325Z,5.77
2023-01-10T06:40:27.315Z,5.78
2023-01-10T06:41:27.314Z,5.82
2023-01-10T06:42:27.285Z,5.82
2023-01-10T06:43:27.255Z,5.82
2023-01-10T06:44:27.295Z,5.85
2023-01-10T06:45:27.243Z,5.88
2023-01-10T06:46:27.231Z,5.88
2023-01-10T06:47:27.213Z,5.88
2023-01-10T06:48:27.195Z,5.85
2023-01-10T06:49:27.221Z,5.85
2023-01-10T06:50:27.187Z,5.89
2023-01-10T06:51:27.153Z,5.91
2023-01-10T06:53:37.684Z,5.91
2023-01-10T06:54:36.946Z,5.89
2023-01-10T06:55:36.926Z,5.88
2023-01-10T06:56:36.897Z,5.89
2023-01-10T06:57:36.909Z,5.89
2023-01-10T06:58:36.878Z,5.88
2023-01-10T06:59:36.894Z,5.89
2023-01-10T07:00:36.850Z,5.91
2023-01-10T07:01:36.931Z,5.92
2023-01-10T07:02:36.867Z,5.88
2023-01-10T07:03:36.876Z,5.88
2023-01-10T07:04:36.846Z,5.89
2023-01-10T07:05:36.818Z,5.91
2023-01-10T07:06:36.792Z,5.91
2023-01-10T07:07:36.793Z,5.95
2023-01-10T07:08:36.749Z,5.91
2023-01-10T07:09:36.782Z,5.93
2023-01-10T07:10:36.728Z,5.88
2023-01-10T07:11:36.738Z,5.88
2023-01-10T07:12:36.742Z,5.89
2023-01-10T07:13:36.688Z,5.88
2023-01-10T07:14:36.700Z,5.88
2023-01-10T07:15:36.679Z,5.83
2023-01-10T07:16:36.653Z,5.83
2023-01-10T07:17:36.638Z,5.85
2023-01-10T07:18:36.618Z,5.83
2023-01-10T07:19:36.643Z,5.81
2023-01-10T07:20:36.611Z,5.78
2023-01-10T07:21:36.584Z,5.81
2023-01-10T07:22:36.580Z,5.78
2023-01-10T07:23:36.583Z,5.83
2023-01-10T07:24:36.563Z,5.86
2023-01-10T07:25:36.533Z,5.83
2023-01-10T07:26:36.516Z,5.81
2023-01-10T07:27:36.521Z,5.82
2023-01-10T07:28:36.517Z,5.78
2023-01-10T07:29:36.489Z,5.78
2023-01-10T07:30:36.459Z,5.81
2023-01-10T07:31:36.515Z,5.77
2023-01-10T07:32:36.440Z,5.77
2023-01-10T07:33:36.432Z,5.78
2023-01-10T07:34:36.449Z,5.81
2023-01-10T07:35:36.413Z,5.75
2023-01-10T07:36:39.114Z,5.77
2023-01-10T07:37:36.385Z,5.74
2023-01-10T07:38:36.359Z,5.74
2023-01-10T07:39:36.365Z,5.74
2023-01-10T07:40:36.381Z,5.74
2023-01-10T07:41:36.323Z,5.73
2023-01-10T07:42:36.302Z,5.70
2023-01-10T07:43:36.313Z,5.70
2023-01-10T07:44:36.291Z,5.67
2023-01-10T07:45:36.273Z,5.66
2023-01-10T07:46:36.289Z,5.64
2023-01-10T07:47:36.245Z,5.60
2023-01-10T07:48:36.257Z,5.57
2023-01-10T07:49:36.238Z,5.55
2023-01-10T07:50:36.214Z,5.57
2023-01-10T07:51:36.190Z,5.56
2023-01-10T07:52:36.164Z,5.55
2023-01-10T07:53:36.171Z,5.53
2023-01-10T07:54:36.179Z,5.53
2023-01-10T07:55:36.158Z,5.52
2023-01-10T07:56:36.143Z,5.49
2023-01-10T07:57:36.110Z,5.50
2023-01-10T07:58:36.119Z,5.49
2023-01-10T07:59:36.111Z,5.49
2023-01-10T08:00:36.079Z,5.49
2023-01-10T08:01:36.077Z,5.48
2023-01-10T08:02:36.137Z,5.52
2023-01-10T08:03:36.150Z,5.50
2023-01-10T08:04:36.002Z,5.48
2023-01-10T08:05:36.021Z,5.45
2023-01-10T08:06:35.996Z,5.48
2023-01-10T08:07:35.981Z,5.46
2023-01-10T08:08:35.953Z,5.48
2023-01-10T08:09:35.949Z,5.46
2023-01-10T08:10:35.959Z,5.45
2023-01-10T08:11:35.931Z,5.46
2023-01-10T08:12:35.925Z,5.41
2023-01-10T08:13:35.892Z,5.41
2023-01-10T08:14:35.937Z,5.43
2023-01-10T08:15:35.885Z,5.38
2023-01-10T08:16:35.857Z,5.43
2023-01-10T08:17:35.871Z,5.45
2023-01-10T08:18:35.844Z,5.48
2023-01-10T08:19:35.825Z,5.46
2023-01-10T08:20:35.828Z,5.43
2023-01-10T08:21:35.792Z,5.43
2023-01-10T08:22:35.788Z,5.45
2023-01-10T08:23:35.784Z,5.46
2023-01-10T08:24:35.790Z,5.46
2023-01-10T08:25:36.565Z,5.49
2023-01-10T08:26:35.731Z,5.52
2023-01-10T08:27:35.714Z,5.52
2023-01-10T08:28:35.695Z,5.50
2023-01-10T08:29:35.696Z,5.52
2023-01-10T08:30:35.695Z,5.49
2023-01-10T08:31:35.698Z,5.48
2023-01-10T08:32:35.653Z,5.48
2023-01-10T08:33:35.642Z,5.48
2023-01-10T08:34:35.622Z,5.46
2023-01-10T08:35:35.618Z,5.50
2023-01-10T08:36:35.593Z,5.50
2023-01-10T08:37:35.631Z,5.52
2023-01-10T08:38:35.565Z,5.50
2023-01-10T08:39:35.587Z,5.52
2023-01-10T08:40:35.556Z,5.52
2023-01-10T08:41:35.540Z,5.55
2023-01-10T08:42:35.521Z,5.55
2023-01-10T08:43:35.546Z,5.53
2023-01-10T08:44:35.532Z,5.55
2023-01-10T08:45:35.498Z,5.53
2023-01-10T08:46:35.486Z,5.56
2023-01-10T08:47:35.542Z,5.56
2023-01-10T08:48:35.448Z,5.57
2023-01-10T08:49:35.426Z,5.56
2023-01-10T08:50:35.442Z,5.53
2023-01-10T08:51:35.406Z,5.53
2023-01-10T08:52:35.393Z,5.60
2023-01-10T08:53:35.376Z,5.64
2023-01-10T08:54:35.362Z,5.59
2023-01-10T08:55:35.405Z,5.64
2023-01-10T08:56:35.327Z,5.60
2023-01-10T08:57:35.358Z,5.63
2023-01-10T08:58:35.306Z,5.64
2023-01-10T08:59:35.335Z,5.70
2023-01-10T09:00:35.296Z,5.66
2023-01-10T09:01:35.428Z,5.70
2023-01-10T09:02:35.356Z,5.74
2023-01-10T09:03:35.248Z,5.77
2023-01-10T09:04:35.225Z,5.77
2023-01-10T09:05:35.250Z,5.82
2023-01-10T09:06:35.200Z,5.81
2023-01-10T09:07:35.212Z,5.82
2023-01-10T09:08:35.179Z,5.82
2023-01-10T09:09:35.173Z,5.85
2023-01-10T09:10:35.184Z,5.85
2023-01-10T09:11:35.127Z,5.89
2023-01-10T09:12:35.130Z,5.93
2023-01-10T09:13:35.140Z,5.95
2023-01-10T09:14:35.087Z,5.96
2023-01-10T09:15:35.102Z,6.01
2023-01-10T09:16:35.077Z,6.04
2023-01-10T09:17:35.069Z,6.04
2023-01-10T09:18:35.093Z,6.09
2023-01-10T09:19:35.036Z,6.11
2023-01-10T09:20:35.029Z,6.13
2023-01-10T09:21:35.014Z,6.18
2023-01-10T09:22:34.995Z,6.19
2023-01-10T09:23:36.937Z,6.22
2023-01-10T09:24:34.960Z,6.28
2023-01-10T09:25:34.977Z,6.33
2023-01-10T09:26:34.958Z,6.38
2023-01-10T09:27:34.915Z,6.41
2023-01-10T09:28:34.915Z,6.41
2023-01-10T09:29:34.897Z,6.46
2023-01-10T09:30:34.915Z,6.50
2023-01-10T09:31:34.969Z,6.54
2023-01-10T09:32:34.866Z,6.53
2023-01-10T09:33:45.732Z,6.54
2023-01-10T09:34:35.851Z,6.59
2023-01-10T09:35:34.855Z,6.66
2023-01-10T09:36:34.815Z,6.62
2023-01-10T09:37:34.802Z,6.63
2023-01-10T09:38:34.774Z,6.66
2023-01-10T09:39:34.768Z,6.65
2023-01-10T09:40:34.773Z,6.68
2023-01-10T09:41:34.761Z,6.65
2023-01-10T09:42:34.767Z,6.65
2023-01-10T09:43:34.711Z,6.66
2023-01-10T09:44:34.719Z,6.68
2023-01-10T09:45:34.701Z,6.69
2023-01-10T09:46:34.725Z,6.71
2023-01-10T09:47:34.660Z,6.73
2023-01-10T09:48:34.660Z,6.72
2023-01-10T09:49:34.665Z,6.71
2023-01-10T09:50:34.629Z,6.73
2023-01-10T09:51:35.563Z,6.76
2023-01-10T09:52:34.644Z,6.76
2023-01-10T09:53:34.607Z,6.80
2023-01-10T09:54:34.568Z,6.81
2023-01-10T09:55:34.572Z,6.84
2023-01-10T09:56:34.549Z,6.86
2023-01-10T09:57:34.532Z,6.90
2023-01-10T09:58:34.514Z,6.91
2023-01-10T09:59:34.513Z,6.97
2023-01-10T10:00:34.528Z,6.98
2023-01-10T10:01:34.498Z,7.01
2023-01-10T10:02:34.462Z,7.04
2023-01-10T10:03:34.499Z,7.07
2023-01-10T10:04:34.467Z,7.09
2023-01-10T10:05:34.446Z,7.16
2023-01-10T10:06:34.429Z,7.20
2023-01-10T10:07:34.428Z,7.27
2023-01-10T10:08:34.391Z,7.26
2023-01-10T10:09:34.380Z,7.29
2023-01-10T10:10:34.392Z,7.31
2023-01-10T10:11:34.354Z,7.35
2023-01-10T10:12:34.322Z,7.34
2023-01-10T10:13:34.323Z,7.37
2023-01-10T10:14:34.327Z,7.38
2023-01-10T10:15:34.303Z,7.45
2023-01-10T10:16:34.387Z,7.45
2023-01-10T10:17:34.262Z,7.50
2023-01-10T10:18:34.242Z,7.50
2023-01-10T10:19:34.241Z,7.53
2023-01-10T10:20:34.243Z,7.59
2023-01-10T10:21:34.222Z,7.59
2023-01-10T10:22:34.196Z,7.66
2023-01-10T10:23:34.615Z,7.62
2023-01-10T10:24:34.175Z,7.59
2023-01-10T10:25:34.170Z,7.50
2023-01-10T10:26:34.158Z,7.55
2023-01-10T10:27:34.134Z,7.58
2023-01-10T10:28:34.466Z,7.60
2023-01-10T10:29:34.122Z,7.66
2023-01-10T10:30:34.107Z,7.67
2023-01-10T10:31:34.101Z,7.75
2023-01-10T10:32:34.054Z,7.75
2023-01-10T10:33:34.059Z,7.78
2023-01-10T10:34:34.029Z,7.82
2023-01-10T10:35:34.064Z,7.90
2023-01-10T10:36:34.011Z,7.89
2023-01-10T10:37:34.056Z,7.92
2023-01-10T10:38:33.999Z,7.92
2023-01-10T10:39:33.974Z,7.96
2023-01-10T10:40:33.974Z,7.96
2023-01-10T10:41:33.979Z,8.00
2023-01-10T10:42:33.935Z,7.96
2023-01-10T10:43:33.928Z,7.96
2023-01-10T10:44:33.910Z,8.03
2023-01-10T10:45:34.002Z,8.11
2023-01-10T10:46:33.885Z,8.12
2023-01-10T10:47:33.883Z,8.11
2023-01-10T10:48:33.870Z,8.14
2023-01-10T10:49:33.865Z,8.21
2023-01-10T10:50:33.826Z,8.29
2023-01-10T10:51:33.839Z,8.36
2023-01-10T10:52:33.806Z,8.39
2023-01-10T10:53:33.787Z,8.39
2023-01-10T10:54:33.771Z,8.47
2023-01-10T10:55:33.757Z,8.39
2023-01-10T10:56:33.788Z,8.39
2023-01-10T10:57:33.732Z,8.39
2023-01-10T10:58:33.730Z,8.45
2023-01-10T10:59:33.730Z,8.48
2023-01-10T11:00:33.700Z,8.55
2023-01-10T11:01:33.777Z,8.57
2023-01-10T11:02:33.665Z,8.57
2023-01-10T11:03:33.667Z,8.48
2023-01-10T11:04:33.755Z,8.48
2023-01-10T11:05:33.617Z,8.48
2023-01-10T11:06:34.379Z,8.50
2023-01-10T11:07:33.589Z,8.53
2023-01-10T11:08:33.596Z,8.54
2023-01-10T11:09:33.577Z,8.47
2023-01-10T11:10:33.577Z,8.50
2023-01-10T11:11:33.557Z,8.51
2023-01-10T11:12:36.146Z,8.57
2023-01-10T11:13:33.557Z,8.60
2023-01-10T11:14:33.507Z,8.62
2023-01-10T11:15:33.488Z,8.68
2023-01-10T11:16:33.560Z,8.69
2023-01-10T11:17:33.468Z,8.71
2023-01-10T11:18:33.451Z,8.69
2023-01-10T11:19:33.443Z,8.69
2023-01-10T11:20:33.429Z,8.65
2023-01-10T11:21:33.430Z,8.62
2023-01-10T11:22:33.400Z,8.62
2023-01-10T11:23:33.380Z,8.66
2023-01-10T11:24:33.374Z,8.71
2023-01-10T11:25:33.361Z,8.73
2023-01-10T11:26:33.363Z,8.76
2023-01-10T11:27:33.339Z,8.73
2023-01-10T11:28:33.318Z,8.75
2023-01-10T11:29:33.321Z,8.62
2023-01-10T11:30:33.341Z,8.66
2023-01-10T11:31:33.369Z,8.71
2023-01-10T11:32:33.283Z,8.75
2023-01-10T11:33:33.273Z,8.78
2023-01-10T11:34:33.241Z,8.81
2023-01-10T11:35:33.225Z,8.84
2023-01-10T11:36:33.252Z,8.81
2023-01-10T11:37:33.202Z,8.83
2023-01-10T11:38:33.205Z,8.88
2023-01-10T11:39:33.188Z,8.99
2023-01-10T11:40:33.182Z,8.99
2023-01-10T11:41:33.152Z,9.05
2023-01-10T11:42:33.138Z,8.99
2023-01-10T11:43:33.143Z,8.99
2023-01-10T11:44:33.136Z,8.97
2023-01-10T11:45:33.158Z,8.96
2023-01-10T11:46:33.109Z,9.01
2023-01-10T11:47:38.030Z,9.02
2023-01-10T11:48:59.733Z,9.06
2023-01-10T11:49:34.067Z,9.06
2023-01-10T11:50:33.055Z,9.10
2023-01-10T11:51:33.040Z,9.15
2023-01-10T11:52:33.007Z,9.15
2023-01-10T11:53:32.982Z,9.18
2023-01-10T11:54:33.123Z,9.20
2023-01-10T11:55:32.964Z,9.23
2023-01-10T11:56:32.979Z,9.18
2023-01-10T11:57:32.987Z,9.20
2023-01-10T11:58:32.934Z,9.18
2023-01-10T11:59:32.936Z,9.23
2023-01-10T12:00:32.903Z,9.25
2023-01-10T12:01:32.986Z,9.31
2023-01-10T12:02:32.912Z,9.38
2023-01-10T12:03:32.855Z,9.34
2023-01-10T12:04:32.846Z,9.34
2023-01-10T12:05:32.849Z,9.30
2023-01-10T12:06:32.837Z,9.27
2023-01-10T12:07:32.834Z,9.34
2023-01-10T12:08:32.800Z,9.42
2023-01-10T12:09:32.823Z,9.32
2023-01-10T12:10:32.791Z,9.31
2023-01-10T12:11:32.766Z,9.30
2023-01-10T12:12:32.746Z,9.31
2023-01-10T12:13:32.725Z,9.30
2023-01-10T12:14:32.721Z,9.27
2023-01-10T12:15:32.725Z,9.24
2023-01-10T12:16:32.757Z,9.27
2023-01-10T12:17:32.718Z,9.25
2023-01-10T12:18:32.656Z,9.25
2023-01-10T12:19:32.669Z,9.24
2023-01-10T12:20:32.666Z,9.30
2023-01-10T12:21:32.637Z,9.27
2023-01-10T12:22:32.661Z,9.24
2023-01-10T12:23:32.588Z,9.30
2023-01-10T12:24:32.694Z,9.31
2023-01-10T12:25:32.569Z,9.35
2023-01-10T12:26:32.639Z,9.40
2023-01-10T12:27:32.729Z,9.32
2023-01-10T12:28:32.543Z,9.32
2023-01-10T12:29:32.522Z,9.35
2023-01-10T12:30:32.565Z,9.35
2023-01-10T12:31:32.502Z,9.35
2023-01-10T12:32:32.481Z,9.34
2023-01-10T12:33:32.475Z,9.35
2023-01-10T12:34:32.461Z,9.32
2023-01-10T12:35:32.448Z,9.38
2023-01-10T12:36:32.427Z,9.38
2023-01-10T12:37:32.412Z,9.43
2023-01-10T12:38:32.413Z,9.42
2023-01-10T12:39:32.386Z,9.38
2023-01-10T12:40:32.389Z,9.35
2023-01-10T12:41:32.356Z,9.35
2023-01-10T12:42:32.341Z,9.35
2023-01-10T12:43:32.374Z,9.31
2023-01-10T12:44:32.340Z,9.34
2023-01-10T12:45:32.299Z,9.32
2023-01-10T12:47:04.265Z,9.38
2023-01-10T12:47:33.307Z,9.39
2023-01-10T12:48:32.282Z,9.35
2023-01-10T12:49:32.251Z,9.39
2023-01-10T12:50:32.244Z,9.38
2023-01-10T12:51:32.246Z,9.39
2023-01-10T12:53:30.148Z,9.39
2023-01-10T12:54:32.765Z,9.38
2023-01-10T12:55:30.100Z,9.38
2023-01-10T12:56:30.097Z,9.35
2023-01-10T12:57:30.059Z,9.38
2023-01-10T12:58:30.077Z,9.40
2023-01-10T12:59:37.386Z,9.45
2023-01-10T13:00:34.923Z,9.50
2023-01-10T13:01:31.083Z,9.56
2023-01-10T13:02:30.113Z,9.48
2023-01-10T13:03:32.471Z,9.42
2023-01-10T13:04:29.980Z,9.40
2023-01-10T13:05:29.966Z,9.39
2023-01-10T13:06:29.957Z,9.40
2023-01-10T13:07:29.948Z,9.32
2023-01-10T13:08:29.951Z,9.35
2023-01-10T13:09:29.921Z,9.38
2023-01-10T13:10:29.971Z,9.42
2023-01-10T13:11:29.889Z,9.48
2023-01-10T13:12:29.877Z,9.48
2023-01-10T13:13:29.856Z,9.46
2023-01-10T13:14:29.867Z,9.43
2023-01-10T13:15:29.884Z,9.48
2023-01-10T13:16:29.831Z,9.45
2023-01-10T13:17:29.800Z,9.45
2023-01-10T13:18:29.821Z,9.45
2023-01-10T13:19:29.784Z,9.46
2023-01-10T13:20:29.764Z,9.49